sensor_id;sensor_type;location;lat;lon;timestamp;temperature;humidity
67890;DHT22;54685;52.082;5.426;2023-07-13T00:02:18;17.90;99.90
67890;DHT22;54685;52.082;5.426;2023-07-13T00:04:45;17.80;99.90
67890;DHT22;54685;52.082;5.426;2023-07-13T00:07:12;17.90;99.90
67890;DHT22;54685;52.082;5.426;2023-07-13T00:09:41;17.80;99.90
67890;DHT22;54685;52.082;5.426;2023-07-13T00:12:26;17.80;99.90
67890;DHT22;54685;52.082;5.426;2023-07-13T00:14:55;17.80;99.90
67890;DHT22;54685;52.082;5.426;2023-07-13T00:17:22;17.90;99.90
67890;DHT22;54685;52.082;5.426;2023-07-13T00:19:49;17.90;99.90
67890;DHT22;54685;52.082;5.426;2023-07-13T00:22:17;17.80;99.90
67890;DHT22;54685;52.082;5.426;2023-07-13T00:24:44;17.80;99.90
67890;DHT22;54685;52.082;5.426;2023-07-13T00:27:12;17.80;99.90
67890;DHT22;54685;52.082;5.426;2023-07-13T00:29:39;17.90;99.90
67890;DHT22;54685;52.082;5.426;2023-07-13T00:32:07;17.80;99.90
67890;DHT22;54685;52.082;5.426;2023-07-13T00:34:37;17.80;99.90
67890;DHT22;54685;52.082;5.426;2023-07-13T00:37:05;17.70;99.90
67890;DHT22;54685;52.082;5.426;2023-07-13T00:39:35;17.80;99.90
67890;DHT22;54685;52.082;5.426;2023-07-13T00:42:03;17.70;99.90
67890;DHT22;54685;52.082;5.426;2023-07-13T00:44:31;17.60;99.90
67890;DHT22;54685;52.082;5.426;2023-07-13T00:46:58;17.60;99.90
67890;DHT22;54685;52.082;5.426;2023-07-13T00:49:27;17.50;99.90
67890;DHT22;54685;52.082;5.426;2023-07-13T00:52:02;17.60;99.90
67890;DHT22;54685;52.082;5.426;2023-07-13T00:54:39;17.50;99.90
67890;DHT22;54685;52.082;5.426;2023-07-13T00:57:11;17.40;99.90
67890;DHT22;54685;52.082;5.426;2023-07-13T00:59:39;17.30;99.90
67890;DHT22;54685;52.082;5.426;2023-07-13T01:02:08;17.30;99.90
67890;DHT22;54685;52.082;5.426;2023-07-13T01:04:36;17.40;99.90
67890;DHT22;54685;52.082;5.426;2023-07-13T01:07:03;17.40;99.90
67890;DHT22;54685;52.082;5.426;2023-07-13T01:09:30;17.40;99.90
67890;DHT22;54685;52.082;5.426;2023-07-13T01:11:57;17.30;99.90
67890;DHT22;54685;52.082;5.426;2023-07-13T01:14:24;17.30;99.90
67890;DHT22;54685;52.082;5.426;2023-07-13T01:16:51;17.30;99.90
67890;DHT22;54685;52.082;5.426;2023-07-13T01:21:52;17.20;99.90
67890;DHT22;54685;52.082;5.426;2023-07-13T01:24:20;17.20;99.90
67890;DHT22;54685;52.082;5.426;2023-07-13T01:26:48;17.00;99.90
67890;DHT22;54685;52.082;5.426;2023-07-13T01:29:15;17.00;99.90
67890;DHT22;54685;52.082;5.426;2023-07-13T01:31:42;17.00;99.90
67890;DHT22;54685;52.082;5.426;2023-07-13T01:34:12;16.90;99.90
67890;DHT22;54685;52.082;5.426;2023-07-13T01:36:39;16.90;99.90
67890;DHT22;54685;52.082;5.426;2023-07-13T01:39:06;16.90;99.90
67890;DHT22;54685;52.082;5.426;2023-07-13T01:41:34;16.90;99.90
67890;DHT22;54685;52.082;5.426;2023-07-13T01:44:01;16.90;99.90
67890;DHT22;54685;52.082;5.426;2023-07-13T01:46:30;16.90;99.90
67890;DHT22;54685;52.082;5.426;2023-07-13T01:48:57;16.80;99.90
67890;DHT22;54685;52.082;5.426;2023-07-13T01:51:24;16.80;99.90
67890;DHT22;54685;52.082;5.426;2023-07-13T01:53:52;16.90;99.90
67890;DHT22;54685;52.082;5.426;2023-07-13T01:56:19;16.90;99.90
67890;DHT22;54685;52.082;5.426;2023-07-13T01:58:47;16.70;99.90
67890;DHT22;54685;52.082;5.426;2023-07-13T02:01:14;16.70;99.90
67890;DHT22;54685;52.082;5.426;2023-07-13T02:03:41;16.60;99.90
67890;DHT22;54685;52.082;5.426;2023-07-13T02:06:09;16.60;99.90
67890;DHT22;54685;52.082;5.426;2023-07-13T02:08:37;16.60;99.90
67890;DHT22;54685;52.082;5.426;2023-07-13T02:11:04;16.60;99.90
67890;DHT22;54685;52.082;5.426;2023-07-13T02:13:31;16.60;99.90
67890;DHT22;54685;52.082;5.426;2023-07-13T02:15:58;16.50;99.90
67890;DHT22;54685;52.082;5.426;2023-07-13T02:18:26;16.50;99.90
67890;DHT22;54685;52.082;5.426;2023-07-13T02:20:53;16.50;99.90
67890;DHT22;54685;52.082;5.426;2023-07-13T02:23:20;16.40;99.90
67890;DHT22;54685;52.082;5.426;2023-07-13T02:25:47;16.40;99.90
67890;DHT22;54685;52.082;5.426;2023-07-13T02:28:15;16.40;99.90
67890;DHT22;54685;52.082;5.426;2023-07-13T02:30:42;16.40;99.90
67890;DHT22;54685;52.082;5.426;2023-07-13T02:33:09;16.40;99.90
67890;DHT22;54685;52.082;5.426;2023-07-13T02:35:36;16.40;99.90
67890;DHT22;54685;52.082;5.426;2023-07-13T02:38:03;16.30;99.90
67890;DHT22;54685;52.082;5.426;2023-07-13T02:40:30;16.30;99.90
67890;DHT22;54685;52.082;5.426;2023-07-13T02:42:59;16.30;99.90
67890;DHT22;54685;52.082;5.426;2023-07-13T02:45:26;16.40;99.90
67890;DHT22;54685;52.082;5.426;2023-07-13T02:47:54;16.20;99.90
67890;DHT22;54685;52.082;5.426;2023-07-13T02:50:21;16.20;99.90
67890;DHT22;54685;52.082;5.426;2023-07-13T02:52:48;16.10;99.90
67890;DHT22;54685;52.082;5.426;2023-07-13T02:55:16;16.10;99.90
67890;DHT22;54685;52.082;5.426;2023-07-13T02:57:43;16.10;99.90
67890;DHT22;54685;52.082;5.426;2023-07-13T03:00:10;16.20;99.90
67890;DHT22;54685;52.082;5.426;2023-07-13T03:02:38;16.20;99.90
67890;DHT22;54685;52.082;5.426;2023-07-13T03:05:05;16.20;99.90
67890;DHT22;54685;52.082;5.426;2023-07-13T03:07:32;16.10;99.90
67890;DHT22;54685;52.082;5.426;2023-07-13T03:09:59;16.00;99.90
67890;DHT22;54685;52.082;5.426;2023-07-13T03:12:37;16.00;99.90
67890;DHT22;54685;52.082;5.426;2023-07-13T03:15:08;16.00;99.90
67890;DHT22;54685;52.082;5.426;2023-07-13T03:17:38;16.00;99.90
67890;DHT22;54685;52.082;5.426;2023-07-13T03:20:07;16.00;99.90
67890;DHT22;54685;52.082;5.426;2023-07-13T03:22:35;16.10;99.90
67890;DHT22;54685;52.082;5.426;2023-07-13T03:25:03;16.00;99.90
67890;DHT22;54685;52.082;5.426;2023-07-13T03:27:29;16.10;99.90
67890;DHT22;54685;52.082;5.426;2023-07-13T03:29:57;16.00;99.90
67890;DHT22;54685;52.082;5.426;2023-07-13T03:32:24;16.10;99.90
67890;DHT22;54685;52.082;5.426;2023-07-13T03:34:52;16.10;99.90
67890;DHT22;54685;52.082;5.426;2023-07-13T03:37:19;16.00;99.90
67890;DHT22;54685;52.082;5.426;2023-07-13T03:39:47;16.00;99.90
67890;DHT22;54685;52.082;5.426;2023-07-13T03:42:15;16.00;99.90
67890;DHT22;54685;52.082;5.426;2023-07-13T03:44:44;16.10;99.90
67890;DHT22;54685;52.082;5.426;2023-07-13T03:47:17;15.90;99.90
67890;DHT22;54685;52.082;5.426;2023-07-13T03:49:44;15.90;99.90
67890;DHT22;54685;52.082;5.426;2023-07-13T03:52:13;16.00;99.90
67890;DHT22;54685;52.082;5.426;2023-07-13T03:54:41;16.00;99.90
67890;DHT22;54685;52.082;5.426;2023-07-13T03:57:08;16.00;99.90
67890;DHT22;54685;52.082;5.426;2023-07-13T03:59:36;16.00;99.90
67890;DHT22;54685;52.082;5.426;2023-07-13T04:02:03;16.00;99.90
67890;DHT22;54685;52.082;5.426;2023-07-13T04:04:46;16.10;99.90
67890;DHT22;54685;52.082;5.426;2023-07-13T04:07:13;16.10;99.90
67890;DHT22;54685;52.082;5.426;2023-07-13T04:09:40;16.00;99.90
67890;DHT22;54685;52.082;5.426;2023-07-13T04:12:09;16.10;99.90
67890;DHT22;54685;52.082;5.426;2023-07-13T04:14:37;16.10;99.90
67890;DHT22;54685;52.082;5.426;2023-07-13T04:17:04;16.20;99.90
67890;DHT22;54685;52.082;5.426;2023-07-13T04:19:31;16.10;99.90
67890;DHT22;54685;52.082;5.426;2023-07-13T04:21:58;16.20;99.90
67890;DHT22;54685;52.082;5.426;2023-07-13T04:24:25;16.20;99.90
67890;DHT22;54685;52.082;5.426;2023-07-13T04:26:52;16.20;99.90
67890;DHT22;54685;52.082;5.426;2023-07-13T04:29:20;16.10;99.90
67890;DHT22;54685;52.082;5.426;2023-07-13T04:31:47;16.20;99.90
67890;DHT22;54685;52.082;5.426;2023-07-13T04:34:14;16.10;99.90
67890;DHT22;54685;52.082;5.426;2023-07-13T04:36:41;16.20;99.90
67890;DHT22;54685;52.082;5.426;2023-07-13T04:39:08;16.20;99.90
67890;DHT22;54685;52.082;5.426;2023-07-13T04:41:35;16.20;99.90
67890;DHT22;54685;52.082;5.426;2023-07-13T04:44:02;16.20;99.90
67890;DHT22;54685;52.082;5.426;2023-07-13T04:46:29;16.20;99.90
67890;DHT22;54685;52.082;5.426;2023-07-13T04:48:56;16.20;99.90
67890;DHT22;54685;52.082;5.426;2023-07-13T04:51:24;16.20;99.90
67890;DHT22;54685;52.082;5.426;2023-07-13T04:53:51;16.30;99.90
67890;DHT22;54685;52.082;5.426;2023-07-13T04:56:31;16.30;99.90
67890;DHT22;54685;52.082;5.426;2023-07-13T04:58:58;16.40;99.90
67890;DHT22;54685;52.082;5.426;2023-07-13T05:01:32;16.20;99.90
67890;DHT22;54685;52.082;5.426;2023-07-13T05:03:59;16.20;99.90
67890;DHT22;54685;52.082;5.426;2023-07-13T05:06:26;16.30;99.90
67890;DHT22;54685;52.082;5.426;2023-07-13T05:08:53;16.40;99.90
67890;DHT22;54685;52.082;5.426;2023-07-13T05:11:20;16.40;99.90
67890;DHT22;54685;52.082;5.426;2023-07-13T05:13:47;16.40;99.90
67890;DHT22;54685;52.082;5.426;2023-07-13T05:16:14;16.30;99.90
67890;DHT22;54685;52.082;5.426;2023-07-13T05:18:41;16.40;99.90
67890;DHT22;54685;52.082;5.426;2023-07-13T05:21:10;16.40;99.90
67890;DHT22;54685;52.082;5.426;2023-07-13T05:23:39;16.40;99.90
67890;DHT22;54685;52.082;5.426;2023-07-13T05:26:08;16.40;99.90
67890;DHT22;54685;52.082;5.426;2023-07-13T05:28:36;16.60;99.90
67890;DHT22;54685;52.082;5.426;2023-07-13T05:31:15;16.60;99.90
67890;DHT22;54685;52.082;5.426;2023-07-13T05:33:45;16.80;99.90
67890;DHT22;54685;52.082;5.426;2023-07-13T05:36:12;16.90;99.90
67890;DHT22;54685;52.082;5.426;2023-07-13T05:38:39;17.00;99.90
67890;DHT22;54685;52.082;5.426;2023-07-13T05:41:07;16.90;99.90
67890;DHT22;54685;52.082;5.426;2023-07-13T05:43:34;17.00;99.90
67890;DHT22;54685;52.082;5.426;2023-07-13T05:46:01;17.00;99.90
67890;DHT22;54685;52.082;5.426;2023-07-13T05:48:28;17.10;99.90
67890;DHT22;54685;52.082;5.426;2023-07-13T05:50:55;17.00;99.90
67890;DHT22;54685;52.082;5.426;2023-07-13T05:53:22;17.00;99.90
67890;DHT22;54685;52.082;5.426;2023-07-13T05:55:48;17.10;99.90
67890;DHT22;54685;52.082;5.426;2023-07-13T05:58:20;17.30;99.90
67890;DHT22;54685;52.082;5.426;2023-07-13T06:00:48;17.20;99.90
67890;DHT22;54685;52.082;5.426;2023-07-13T06:03:15;17.30;99.90
67890;DHT22;54685;52.082;5.426;2023-07-13T06:05:42;17.30;99.90
67890;DHT22;54685;52.082;5.426;2023-07-13T06:08:09;17.40;99.90
67890;DHT22;54685;52.082;5.426;2023-07-13T06:10:37;17.50;99.90
67890;DHT22;54685;52.082;5.426;2023-07-13T06:13:04;17.50;99.90
67890;DHT22;54685;52.082;5.426;2023-07-13T06:15:31;17.60;99.90
67890;DHT22;54685;52.082;5.426;2023-07-13T06:17:58;17.60;99.90
67890;DHT22;54685;52.082;5.426;2023-07-13T06:20:26;17.70;99.90
67890;DHT22;54685;52.082;5.426;2023-07-13T06:22:52;17.70;99.90
67890;DHT22;54685;52.082;5.426;2023-07-13T06:25:19;17.60;99.90
67890;DHT22;54685;52.082;5.426;2023-07-13T06:27:46;17.70;99.90
67890;DHT22;54685;52.082;5.426;2023-07-13T06:30:13;17.70;99.90
67890;DHT22;54685;52.082;5.426;2023-07-13T06:32:40;17.70;99.90
67890;DHT22;54685;52.082;5.426;2023-07-13T06:35:07;17.70;99.90
67890;DHT22;54685;52.082;5.426;2023-07-13T06:37:34;17.70;99.90
67890;DHT22;54685;52.082;5.426;2023-07-13T06:40:01;17.90;99.90
67890;DHT22;54685;52.082;5.426;2023-07-13T06:42:28;17.90;99.90
67890;DHT22;54685;52.082;5.426;2023-07-13T06:44:55;17.90;99.90
67890;DHT22;54685;52.082;5.426;2023-07-13T06:47:22;18.10;99.90
67890;DHT22;54685;52.082;5.426;2023-07-13T06:49:49;18.00;99.90
67890;DHT22;54685;52.082;5.426;2023-07-13T06:52:16;18.20;99.90
67890;DHT22;54685;52.082;5.426;2023-07-13T06:54:43;18.30;99.90
67890;DHT22;54685;52.082;5.426;2023-07-13T06:57:10;18.40;99.90
67890;DHT22;54685;52.082;5.426;2023-07-13T06:59:37;18.40;99.90
67890;DHT22;54685;52.082;5.426;2023-07-13T07:02:04;18.60;99.90
67890;DHT22;54685;52.082;5.426;2023-07-13T07:04:32;18.60;99.90
67890;DHT22;54685;52.082;5.426;2023-07-13T07:06:59;18.60;99.90
67890;DHT22;54685;52.082;5.426;2023-07-13T07:09:26;18.60;99.90
67890;DHT22;54685;52.082;5.426;2023-07-13T07:11:53;18.60;99.90
67890;DHT22;54685;52.082;5.426;2023-07-13T07:14:30;18.60;99.90
67890;DHT22;54685;52.082;5.426;2023-07-13T07:16:57;18.60;99.90
67890;DHT22;54685;52.082;5.426;2023-07-13T07:19:26;18.50;99.90
67890;DHT22;54685;52.082;5.426;2023-07-13T07:21:53;18.50;99.90
67890;DHT22;54685;52.082;5.426;2023-07-13T07:24:19;18.50;99.90
67890;DHT22;54685;52.082;5.426;2023-07-13T07:26:46;18.60;99.90
67890;DHT22;54685;52.082;5.426;2023-07-13T07:29:16;18.60;99.90
67890;DHT22;54685;52.082;5.426;2023-07-13T07:31:46;18.60;99.90
67890;DHT22;54685;52.082;5.426;2023-07-13T07:34:30;18.60;99.90
67890;DHT22;54685;52.082;5.426;2023-07-13T07:37:00;18.80;99.90
67890;DHT22;54685;52.082;5.426;2023-07-13T07:39:30;18.70;99.90
67890;DHT22;54685;52.082;5.426;2023-07-13T07:41:58;18.80;99.90
67890;DHT22;54685;52.082;5.426;2023-07-13T07:44:25;18.80;99.90
67890;DHT22;54685;52.082;5.426;2023-07-13T07:46:53;19.00;99.90
67890;DHT22;54685;52.082;5.426;2023-07-13T07:49:21;19.10;99.90
67890;DHT22;54685;52.082;5.426;2023-07-13T07:51:48;19.10;99.90
67890;DHT22;54685;52.082;5.426;2023-07-13T07:54:15;19.10;99.90
67890;DHT22;54685;52.082;5.426;2023-07-13T07:56:55;19.20;99.90
67890;DHT22;54685;52.082;5.426;2023-07-13T07:59:42;19.20;99.90
67890;DHT22;54685;52.082;5.426;2023-07-13T08:02:12;19.00;99.90
67890;DHT22;54685;52.082;5.426;2023-07-13T08:04:59;19.10;99.90
67890;DHT22;54685;52.082;5.426;2023-07-13T08:07:30;19.20;99.90
67890;DHT22;54685;52.082;5.426;2023-07-13T08:09:59;19.30;99.90
67890;DHT22;54685;52.082;5.426;2023-07-13T08:12:26;19.50;99.90
67890;DHT22;54685;52.082;5.426;2023-07-13T08:14:56;19.50;99.90
67890;DHT22;54685;52.082;5.426;2023-07-13T08:17:25;19.30;99.90
67890;DHT22;54685;52.082;5.426;2023-07-13T08:20:17;19.50;99.90
67890;DHT22;54685;52.082;5.426;2023-07-13T08:22:44;19.80;99.90
67890;DHT22;54685;52.082;5.426;2023-07-13T08:25:11;19.90;99.90
67890;DHT22;54685;52.082;5.426;2023-07-13T08:27:38;19.80;99.90
67890;DHT22;54685;52.082;5.426;2023-07-13T08:30:06;19.90;99.90
67890;DHT22;54685;52.082;5.426;2023-07-13T08:32:36;19.70;99.90
67890;DHT22;54685;52.082;5.426;2023-07-13T08:35:04;19.60;99.90
67890;DHT22;54685;52.082;5.426;2023-07-13T08:37:31;19.70;99.90
67890;DHT22;54685;52.082;5.426;2023-07-13T08:39:58;19.90;99.90
67890;DHT22;54685;52.082;5.426;2023-07-13T08:42:37;20.20;99.90
67890;DHT22;54685;52.082;5.426;2023-07-13T08:45:43;20.20;99.90
67890;DHT22;54685;52.082;5.426;2023-07-13T08:48:52;20.10;99.90
67890;DHT22;54685;52.082;5.426;2023-07-13T08:54:24;20.00;99.50
67890;DHT22;54685;52.082;5.426;2023-07-13T08:56:56;20.10;99.90
67890;DHT22;54685;52.082;5.426;2023-07-13T08:59:27;19.90;99.90
67890;DHT22;54685;52.082;5.426;2023-07-13T09:02:17;19.70;99.90
67890;DHT22;54685;52.082;5.426;2023-07-13T09:10:41;19.30;99.90
67890;DHT22;54685;52.082;5.426;2023-07-13T09:16:01;19.50;99.90
67890;DHT22;54685;52.082;5.426;2023-07-13T09:18:36;19.50;99.90
67890;DHT22;54685;52.082;5.426;2023-07-13T09:21:09;19.90;99.90
67890;DHT22;54685;52.082;5.426;2023-07-13T09:23:38;20.10;99.90
67890;DHT22;54685;52.082;5.426;2023-07-13T09:26:12;20.00;99.90
67890;DHT22;54685;52.082;5.426;2023-07-13T09:28:43;20.10;99.90
67890;DHT22;54685;52.082;5.426;2023-07-13T09:31:26;20.10;99.90
67890;DHT22;54685;52.082;5.426;2023-07-13T09:33:56;20.10;99.90
67890;DHT22;54685;52.082;5.426;2023-07-13T09:36:28;20.50;99.90
67890;DHT22;54685;52.082;5.426;2023-07-13T09:44:13;21.20;99.90
67890;DHT22;54685;52.082;5.426;2023-07-13T09:46:54;21.30;94.20
67890;DHT22;54685;52.082;5.426;2023-07-13T09:49:31;21.40;91.30
67890;DHT22;54685;52.082;5.426;2023-07-13T09:52:05;21.30;94.40
67890;DHT22;54685;52.082;5.426;2023-07-13T09:54:35;21.30;95.50
67890;DHT22;54685;52.082;5.426;2023-07-13T09:57:12;21.40;92.80
67890;DHT22;54685;52.082;5.426;2023-07-13T09:59:49;21.10;94.80
67890;DHT22;54685;52.082;5.426;2023-07-13T10:02:32;20.90;96.20
67890;DHT22;54685;52.082;5.426;2023-07-13T10:05:13;20.70;99.90
67890;DHT22;54685;52.082;5.426;2023-07-13T10:07:43;20.50;99.90
67890;DHT22;54685;52.082;5.426;2023-07-13T10:10:16;20.20;99.90
67890;DHT22;54685;52.082;5.426;2023-07-13T10:12:44;20.10;99.90
67890;DHT22;54685;52.082;5.426;2023-07-13T10:15:17;19.90;99.90
67890;DHT22;54685;52.082;5.426;2023-07-13T10:17:52;19.70;99.90
67890;DHT22;54685;52.082;5.426;2023-07-13T10:20:20;19.70;99.90
67890;DHT22;54685;52.082;5.426;2023-07-13T10:22:54;20.10;99.90
67890;DHT22;54685;52.082;5.426;2023-07-13T10:25:25;20.50;99.90
67890;DHT22;54685;52.082;5.426;2023-07-13T10:27:58;20.80;99.90
67890;DHT22;54685;52.082;5.426;2023-07-13T10:30:32;21.20;99.90
67890;DHT22;54685;52.082;5.426;2023-07-13T10:33:10;21.70;99.90
67890;DHT22;54685;52.082;5.426;2023-07-13T10:35:39;22.30;95.10
67890;DHT22;54685;52.082;5.426;2023-07-13T10:38:12;22.50;92.00
67890;DHT22;54685;52.082;5.426;2023-07-13T10:40:54;22.30;90.10
67890;DHT22;54685;52.082;5.426;2023-07-13T10:43:25;22.20;91.70
67890;DHT22;54685;52.082;5.426;2023-07-13T10:45:54;22.10;86.30
67890;DHT22;54685;52.082;5.426;2023-07-13T10:48:23;22.00;82.30
67890;DHT22;54685;52.082;5.426;2023-07-13T10:50:51;21.80;85.20
67890;DHT22;54685;52.082;5.426;2023-07-13T10:53:27;21.70;81.60
67890;DHT22;54685;52.082;5.426;2023-07-13T10:55:59;22.10;81.20
67890;DHT22;54685;52.082;5.426;2023-07-13T10:58:38;22.50;81.10
67890;DHT22;54685;52.082;5.426;2023-07-13T11:01:15;22.90;71.60
67890;DHT22;54685;52.082;5.426;2023-07-13T11:03:50;23.30;67.80
67890;DHT22;54685;52.082;5.426;2023-07-13T11:09:16;23.60;60.70
67890;DHT22;54685;52.082;5.426;2023-07-13T11:11:44;23.90;62.60
67890;DHT22;54685;52.082;5.426;2023-07-13T11:16:57;23.70;61.30
67890;DHT22;54685;52.082;5.426;2023-07-13T11:19:27;23.50;64.00
67890;DHT22;54685;52.082;5.426;2023-07-13T11:24:49;24.00;64.00
67890;DHT22;54685;52.082;5.426;2023-07-13T11:27:27;24.00;63.60
67890;DHT22;54685;52.082;5.426;2023-07-13T11:40:55;24.80;60.60
67890;DHT22;54685;52.082;5.426;2023-07-13T11:43:23;24.90;61.10
67890;DHT22;54685;52.082;5.426;2023-07-13T11:45:51;24.80;57.20
67890;DHT22;54685;52.082;5.426;2023-07-13T11:51:25;23.80;69.00
67890;DHT22;54685;52.082;5.426;2023-07-13T11:53:54;23.00;91.40
67890;DHT22;54685;52.082;5.426;2023-07-13T11:56:25;22.50;99.10
67890;DHT22;54685;52.082;5.426;2023-07-13T11:58:55;21.90;99.90
67890;DHT22;54685;52.082;5.426;2023-07-13T12:01:28;21.30;99.90
67890;DHT22;54685;52.082;5.426;2023-07-13T12:04:03;21.10;99.90
67890;DHT22;54685;52.082;5.426;2023-07-13T12:06:32;20.90;99.90
67890;DHT22;54685;52.082;5.426;2023-07-13T12:09:03;20.70;99.90
67890;DHT22;54685;52.082;5.426;2023-07-13T12:11:34;20.60;99.90
67890;DHT22;54685;52.082;5.426;2023-07-13T12:14:16;20.50;99.90
67890;DHT22;54685;52.082;5.426;2023-07-13T12:16:47;20.50;99.90
67890;DHT22;54685;52.082;5.426;2023-07-13T12:19:28;20.60;99.90
67890;DHT22;54685;52.082;5.426;2023-07-13T12:21:57;21.10;99.90
67890;DHT22;54685;52.082;5.426;2023-07-13T12:24:26;21.50;99.90
67890;DHT22;54685;52.082;5.426;2023-07-13T12:27:02;21.90;99.90
67890;DHT22;54685;52.082;5.426;2023-07-13T12:29:32;22.20;99.90
67890;DHT22;54685;52.082;5.426;2023-07-13T12:31:59;22.50;99.90
67890;DHT22;54685;52.082;5.426;2023-07-13T12:34:27;22.60;99.90
67890;DHT22;54685;52.082;5.426;2023-07-13T12:36:59;22.50;99.90
67890;DHT22;54685;52.082;5.426;2023-07-13T12:39:44;22.40;99.90
67890;DHT22;54685;52.082;5.426;2023-07-13T12:42:29;22.20;99.90
67890;DHT22;54685;52.082;5.426;2023-07-13T12:45:16;22.10;99.90
67890;DHT22;54685;52.082;5.426;2023-07-13T12:47:49;22.20;99.90
67890;DHT22;54685;52.082;5.426;2023-07-13T12:50:19;22.50;99.90
67890;DHT22;54685;52.082;5.426;2023-07-13T12:52:56;22.70;99.90
67890;DHT22;54685;52.082;5.426;2023-07-13T12:55:25;22.90;98.10
67890;DHT22;54685;52.082;5.426;2023-07-13T12:57:56;23.20;97.20
67890;DHT22;54685;52.082;5.426;2023-07-13T13:00:27;23.40;95.80
67890;DHT22;54685;52.082;5.426;2023-07-13T13:02:56;23.70;96.30
67890;DHT22;54685;52.082;5.426;2023-07-13T13:05:44;23.80;95.40
67890;DHT22;54685;52.082;5.426;2023-07-13T13:08:12;24.00;93.60
67890;DHT22;54685;52.082;5.426;2023-07-13T13:10:40;24.10;80.50
67890;DHT22;54685;52.082;5.426;2023-07-13T13:13:07;24.10;69.90
67890;DHT22;54685;52.082;5.426;2023-07-13T13:15:35;24.00;66.70
67890;DHT22;54685;52.082;5.426;2023-07-13T13:18:13;23.90;67.40
67890;DHT22;54685;52.082;5.426;2023-07-13T13:20:41;24.10;72.00
67890;DHT22;54685;52.082;5.426;2023-07-13T13:23:13;24.00;67.10
67890;DHT22;54685;52.082;5.426;2023-07-13T13:25:42;24.00;69.80
67890;DHT22;54685;52.082;5.426;2023-07-13T13:28:16;24.00;61.60
67890;DHT22;54685;52.082;5.426;2023-07-13T13:30:47;24.00;63.10
67890;DHT22;54685;52.082;5.426;2023-07-13T13:33:15;24.10;65.70
67890;DHT22;54685;52.082;5.426;2023-07-13T13:35:43;24.10;59.40
67890;DHT22;54685;52.082;5.426;2023-07-13T13:38:14;23.90;59.50
67890;DHT22;54685;52.082;5.426;2023-07-13T13:40:43;23.70;63.00
67890;DHT22;54685;52.082;5.426;2023-07-13T13:43:25;23.50;61.40
67890;DHT22;54685;52.082;5.426;2023-07-13T13:45:57;23.40;60.20
67890;DHT22;54685;52.082;5.426;2023-07-13T13:48:58;23.40;62.60
67890;DHT22;54685;52.082;5.426;2023-07-13T13:51:26;23.60;63.20
67890;DHT22;54685;52.082;5.426;2023-07-13T13:53:53;23.60;58.50
67890;DHT22;54685;52.082;5.426;2023-07-13T13:56:20;23.70;60.10
67890;DHT22;54685;52.082;5.426;2023-07-13T13:58:47;23.70;58.90
67890;DHT22;54685;52.082;5.426;2023-07-13T14:01:19;23.60;57.70
67890;DHT22;54685;52.082;5.426;2023-07-13T14:03:46;23.60;60.20
67890;DHT22;54685;52.082;5.426;2023-07-13T14:06:15;23.70;58.40
67890;DHT22;54685;52.082;5.426;2023-07-13T14:08:43;23.60;58.40
67890;DHT22;54685;52.082;5.426;2023-07-13T14:11:16;23.80;59.00
67890;DHT22;54685;52.082;5.426;2023-07-13T14:13:48;23.90;62.80
67890;DHT22;54685;52.082;5.426;2023-07-13T14:16:18;24.00;58.70
67890;DHT22;54685;52.082;5.426;2023-07-13T14:18:47;24.00;57.10
67890;DHT22;54685;52.082;5.426;2023-07-13T14:21:17;24.00;57.20
67890;DHT22;54685;52.082;5.426;2023-07-13T14:23:46;24.00;55.80
67890;DHT22;54685;52.082;5.426;2023-07-13T14:26:19;24.00;58.50
67890;DHT22;54685;52.082;5.426;2023-07-13T14:28:49;24.00;60.70
67890;DHT22;54685;52.082;5.426;2023-07-13T14:31:17;24.00;64.40
67890;DHT22;54685;52.082;5.426;2023-07-13T14:33:44;23.80;64.90
67890;DHT22;54685;52.082;5.426;2023-07-13T14:38:41;23.60;66.20
67890;DHT22;54685;52.082;5.426;2023-07-13T14:41:09;23.60;67.70
67890;DHT22;54685;52.082;5.426;2023-07-13T14:43:36;23.50;67.70
67890;DHT22;54685;52.082;5.426;2023-07-13T14:46:03;23.50;68.00
67890;DHT22;54685;52.082;5.426;2023-07-13T14:48:31;23.50;69.50
67890;DHT22;54685;52.082;5.426;2023-07-13T14:50:58;23.50;64.10
67890;DHT22;54685;52.082;5.426;2023-07-13T14:53:26;23.50;66.50
67890;DHT22;54685;52.082;5.426;2023-07-13T14:55:57;23.40;65.40
67890;DHT22;54685;52.082;5.426;2023-07-13T14:58:23;23.50;63.70
67890;DHT22;54685;52.082;5.426;2023-07-13T15:00:50;23.60;64.00
67890;DHT22;54685;52.082;5.426;2023-07-13T15:03:24;23.60;64.60
67890;DHT22;54685;52.082;5.426;2023-07-13T15:05:52;23.60;64.60
67890;DHT22;54685;52.082;5.426;2023-07-13T15:08:20;23.30;64.00
67890;DHT22;54685;52.082;5.426;2023-07-13T15:10:46;23.20;65.70
67890;DHT22;54685;52.082;5.426;2023-07-13T15:13:20;23.10;64.90
67890;DHT22;54685;52.082;5.426;2023-07-13T15:15:51;23.20;65.20
67890;DHT22;54685;52.082;5.426;2023-07-13T15:18:21;23.30;67.20
67890;DHT22;54685;52.082;5.426;2023-07-13T15:20:49;23.50;64.70
67890;DHT22;54685;52.082;5.426;2023-07-13T15:23:17;23.50;64.60
67890;DHT22;54685;52.082;5.426;2023-07-13T15:25:45;23.50;63.90
67890;DHT22;54685;52.082;5.426;2023-07-13T15:28:12;23.50;65.40
67890;DHT22;54685;52.082;5.426;2023-07-13T15:30:46;23.50;66.20
67890;DHT22;54685;52.082;5.426;2023-07-13T15:35:46;23.20;68.30
67890;DHT22;54685;52.082;5.426;2023-07-13T15:38:18;23.10;69.80
67890;DHT22;54685;52.082;5.426;2023-07-13T15:40:46;23.10;70.10
67890;DHT22;54685;52.082;5.426;2023-07-13T15:43:16;23.10;67.30
67890;DHT22;54685;52.082;5.426;2023-07-13T15:45:44;23.00;68.30
67890;DHT22;54685;52.082;5.426;2023-07-13T15:50:50;23.00;68.80
67890;DHT22;54685;52.082;5.426;2023-07-13T15:53:26;23.00;69.10
67890;DHT22;54685;52.082;5.426;2023-07-13T15:55:55;22.90;69.70
67890;DHT22;54685;52.082;5.426;2023-07-13T15:58:23;22.80;67.90
67890;DHT22;54685;52.082;5.426;2023-07-13T16:00:52;22.80;70.20
67890;DHT22;54685;52.082;5.426;2023-07-13T16:03:21;22.70;70.40
67890;DHT22;54685;52.082;5.426;2023-07-13T16:05:49;22.80;71.00
67890;DHT22;54685;52.082;5.426;2023-07-13T16:08:25;22.70;69.30
67890;DHT22;54685;52.082;5.426;2023-07-13T16:10:53;22.70;65.40
67890;DHT22;54685;52.082;5.426;2023-07-13T16:13:21;22.70;66.70
67890;DHT22;54685;52.082;5.426;2023-07-13T16:15:48;22.80;67.10
67890;DHT22;54685;52.082;5.426;2023-07-13T16:18:15;22.90;66.30
67890;DHT22;54685;52.082;5.426;2023-07-13T16:20:47;23.00;67.40
67890;DHT22;54685;52.082;5.426;2023-07-13T16:23:16;23.00;65.20
67890;DHT22;54685;52.082;5.426;2023-07-13T16:25:43;23.00;67.40
67890;DHT22;54685;52.082;5.426;2023-07-13T16:28:12;23.00;65.50
67890;DHT22;54685;52.082;5.426;2023-07-13T16:30:39;23.10;64.00
67890;DHT22;54685;52.082;5.426;2023-07-13T16:33:07;23.10;64.90
67890;DHT22;54685;52.082;5.426;2023-07-13T16:35:40;23.10;63.80
67890;DHT22;54685;52.082;5.426;2023-07-13T16:38:17;23.20;66.20